createdAt,value
2023-05-11T00:00:49.256Z,24.30
2023-05-11T00:01:49.435Z,24.30
2023-05-11T00:02:49.386Z,24.30
2023-05-11T00:03:49.477Z,24.29
2023-05-11T00:04:49.421Z,24.30
2023-05-11T00:05:49.467Z,24.30
2023-05-11T00:06:49.500Z,24.30
2023-05-11T00:07:49.696Z,24.30
2023-05-11T00:08:49.588Z,24.30
2023-05-11T00:09:49.671Z,24.29
2023-05-11T00:10:49.668Z,24.29
2023-05-11T00:11:49.709Z,24.30
2023-05-11T00:12:49.762Z,24.30
2023-05-11T00:13:49.832Z,24.31
2023-05-11T00:14:49.869Z,24.30
2023-05-11T00:15:49.951Z,24.30
2023-05-11T00:16:49.988Z,24.29
2023-05-11T00:17:50.053Z,24.29
2023-05-11T00:18:50.156Z,24.28
2023-05-11T00:19:50.161Z,24.29
2023-05-11T00:20:50.205Z,24.29
2023-05-11T00:21:50.235Z,24.29
2023-05-11T00:22:50.333Z,24.29
2023-05-11T00:23:51.269Z,24.29
2023-05-11T00:24:50.296Z,24.28
2023-05-11T00:25:50.294Z,24.28
2023-05-11T00:26:50.311Z,24.29
2023-05-11T00:27:50.297Z,24.28
2023-05-11T00:28:50.333Z,24.28
2023-05-11T00:29:50.967Z,24.27
2023-05-11T00:30:50.430Z,24.27
2023-05-11T00:31:50.510Z,24.27
2023-05-11T00:32:50.584Z,24.27
2023-05-11T00:33:50.526Z,24.27
2023-05-11T00:34:50.554Z,24.27
2023-05-11T00:35:50.574Z,24.27
2023-05-11T00:36:50.629Z,24.26
2023-05-11T00:37:50.646Z,24.26
2023-05-11T00:38:50.694Z,24.26
2023-05-11T00:39:50.749Z,24.26
2023-05-11T00:40:50.810Z,24.26
2023-05-11T00:41:51.092Z,24.26
2023-05-11T00:42:50.865Z,24.25
2023-05-11T00:43:50.906Z,24.25
2023-05-11T00:44:50.941Z,24.25
2023-05-11T00:45:50.960Z,24.26
2023-05-11T00:46:51.046Z,24.26
2023-05-11T00:47:51.054Z,24.26
2023-05-11T00:48:51.054Z,24.27
2023-05-11T00:49:51.277Z,24.25
2023-05-11T00:50:51.137Z,24.24
2023-05-11T00:51:51.236Z,24.25
2023-05-11T00:52:51.123Z,24.25
2023-05-11T00:53:51.124Z,24.25
2023-05-11T00:54:51.132Z,24.25
2023-05-11T00:55:51.274Z,24.23
2023-05-11T00:56:51.146Z,24.24
2023-05-11T00:57:51.134Z,24.23
2023-05-11T00:58:51.300Z,24.24
2023-05-11T00:59:52.186Z,24.24
2023-05-11T01:00:51.190Z,24.25
2023-05-11T01:01:51.234Z,24.24
2023-05-11T01:02:51.292Z,24.23
2023-05-11T01:03:51.250Z,24.23
2023-05-11T01:04:51.270Z,24.23
2023-05-11T01:05:51.272Z,24.24
2023-05-11T01:06:51.264Z,24.24
2023-05-11T01:07:51.374Z,24.24
2023-05-11T01:08:52.414Z,24.24
2023-05-11T01:09:52.273Z,24.23
2023-05-11T01:10:51.257Z,24.23
2023-05-11T01:11:51.251Z,24.23
2023-05-11T01:12:51.253Z,24.23
2023-05-11T01:13:51.264Z,24.22
2023-05-11T01:14:51.309Z,24.23
2023-05-11T01:15:51.296Z,24.22
2023-05-11T01:16:51.385Z,24.22
2023-05-11T01:17:51.374Z,24.23
2023-05-11T01:18:51.411Z,24.22
2023-05-11T01:19:51.396Z,24.22
2023-05-11T01:20:51.381Z,24.22
2023-05-11T01:21:51.389Z,24.21
2023-05-11T01:22:51.440Z,24.22
2023-05-11T01:23:51.361Z,24.21
2023-05-11T01:24:51.406Z,24.22
2023-05-11T01:25:51.442Z,24.22
2023-05-11T01:26:51.533Z,24.22
2023-05-11T01:27:52.742Z,24.21
2023-05-11T01:28:51.580Z,24.22
2023-05-11T01:29:52.710Z,24.21
2023-05-11T01:30:51.476Z,24.22
2023-05-11T01:31:51.507Z,24.21
2023-05-11T01:32:51.557Z,24.21
2023-05-11T01:33:51.462Z,24.21
2023-05-11T01:34:51.476Z,24.21
2023-05-11T01:35:51.477Z,24.20
2023-05-11T01:36:51.436Z,24.21
2023-05-11T01:37:51.437Z,24.20
2023-05-11T01:38:51.514Z,24.21
2023-05-11T01:39:51.596Z,24.20
2023-05-11T01:40:52.412Z,24.20
2023-05-11T01:41:51.444Z,24.20
2023-05-11T01:42:51.459Z,24.19
2023-05-11T01:43:52.588Z,24.19
2023-05-11T01:44:51.559Z,24.19
2023-05-11T01:45:51.616Z,24.19
2023-05-11T01:46:51.584Z,24.19
2023-05-11T01:47:51.661Z,24.20
2023-05-11T01:48:51.493Z,24.19
2023-05-11T01:49:51.459Z,24.19
2023-05-11T01:50:51.440Z,24.20
2023-05-11T01:51:51.436Z,24.19
2023-05-11T01:52:51.406Z,24.18
2023-05-11T01:53:51.404Z,24.18
2023-05-11T01:54:51.562Z,24.18
2023-05-11T01:55:51.426Z,24.18
2023-05-11T01:56:51.399Z,24.18
2023-05-11T01:57:51.405Z,24.18
2023-05-11T01:58:51.413Z,24.17
2023-05-11T01:59:51.402Z,24.18
2023-05-11T02:00:51.411Z,24.18
2023-05-11T02:01:51.415Z,24.18
2023-05-11T02:02:51.567Z,24.17
2023-05-11T02:03:51.435Z,24.18
2023-05-11T02:04:51.392Z,24.17
2023-05-11T02:05:51.390Z,24.17
2023-05-11T02:06:51.386Z,24.16
2023-05-11T02:07:51.384Z,24.17
2023-05-11T02:08:51.410Z,24.17
2023-05-11T02:09:51.402Z,24.17
2023-05-11T02:10:51.403Z,24.16
2023-05-11T02:11:51.407Z,24.16
2023-05-11T02:12:51.426Z,24.16
2023-05-11T02:13:51.414Z,24.15
2023-05-11T02:14:51.427Z,24.15
2023-05-11T02:15:51.478Z,24.16
2023-05-11T02:16:51.448Z,24.16
2023-05-11T02:17:51.492Z,24.15
2023-05-11T02:18:51.486Z,24.15
2023-05-11T02:19:51.414Z,24.16
2023-05-11T02:20:51.419Z,24.15
2023-05-11T02:21:51.421Z,24.16
2023-05-11T02:22:51.414Z,24.15
2023-05-11T02:23:51.414Z,24.15
2023-05-11T02:24:51.429Z,24.15
2023-05-11T02:25:51.421Z,24.14
2023-05-11T02:26:51.427Z,24.15
2023-05-11T02:27:51.454Z,24.14
2023-05-11T02:28:51.433Z,24.15
2023-05-11T02:29:51.430Z,24.15
2023-05-11T02:30:51.468Z,24.14
2023-05-11T02:31:51.574Z,24.14
2023-05-11T02:32:51.551Z,24.14
2023-05-11T02:33:52.638Z,24.13
2023-05-11T02:34:51.452Z,24.12
2023-05-11T02:35:51.428Z,24.12
2023-05-11T02:36:51.446Z,24.12
2023-05-11T02:37:51.439Z,24.12
2023-05-11T02:38:51.413Z,24.12
2023-05-11T02:39:51.399Z,24.12
2023-05-11T02:40:51.586Z,24.12
2023-05-11T02:41:52.384Z,24.12
2023-05-11T02:42:51.384Z,24.12
2023-05-11T02:43:51.534Z,24.12
2023-05-11T02:44:52.562Z,24.12
2023-05-11T02:45:51.385Z,24.12
2023-05-11T02:46:51.538Z,24.11
2023-05-11T02:47:51.429Z,24.11
2023-05-11T02:48:51.407Z,24.12
2023-05-11T02:49:51.399Z,24.11
2023-05-11T02:50:51.413Z,24.11
2023-05-11T02:51:51.385Z,24.11
2023-05-11T02:52:51.401Z,24.10
2023-05-11T02:53:51.408Z,24.10
2023-05-11T02:54:51.390Z,24.10
2023-05-11T02:55:51.381Z,24.11
2023-05-11T02:56:51.396Z,24.11
2023-05-11T02:57:51.433Z,24.10
2023-05-11T02:58:51.369Z,24.10
2023-05-11T02:59:51.400Z,24.11
2023-05-11T03:00:51.463Z,24.11
2023-05-11T03:01:51.640Z,24.11
2023-05-11T03:02:51.412Z,24.12
2023-05-11T03:03:51.506Z,24.11
2023-05-11T03:04:51.388Z,24.11
2023-05-11T03:05:51.362Z,24.11
2023-05-11T03:06:51.369Z,24.11
2023-05-11T03:07:51.425Z,24.10
2023-05-11T03:08:51.399Z,24.10
2023-05-11T03:09:51.397Z,24.10
2023-05-11T03:10:51.374Z,24.10
2023-05-11T03:11:51.376Z,24.09
2023-05-11T03:12:51.396Z,24.09
2023-05-11T03:13:51.384Z,24.10
2023-05-11T03:14:51.370Z,24.09
2023-05-11T03:15:51.373Z,24.09
2023-05-11T03:16:51.472Z,24.09
2023-05-11T03:17:51.528Z,24.08
2023-05-11T03:18:51.430Z,24.08
2023-05-11T03:19:51.387Z,24.07
2023-05-11T03:20:51.402Z,24.08
2023-05-11T03:21:51.401Z,24.09
2023-05-11T03:22:51.438Z,24.08
2023-05-11T03:23:51.390Z,24.08
2023-05-11T03:24:51.401Z,24.08
2023-05-11T03:25:51.427Z,24.07
2023-05-11T03:26:51.386Z,24.08
2023-05-11T03:27:51.391Z,24.08
2023-05-11T03:28:51.432Z,24.08
2023-05-11T03:29:51.416Z,24.08
2023-05-11T03:30:51.422Z,24.08
2023-05-11T03:31:51.546Z,24.08
2023-05-11T03:32:51.510Z,24.08
2023-05-11T03:33:51.487Z,24.07
2023-05-11T03:34:51.455Z,24.08
2023-05-11T03:35:51.434Z,24.08
2023-05-11T03:36:51.443Z,24.08
2023-05-11T03:37:51.434Z,24.06
2023-05-11T03:38:51.450Z,24.06
2023-05-11T03:39:51.484Z,24.05
2023-05-11T03:40:51.480Z,24.05
2023-05-11T03:41:51.474Z,24.05
2023-05-11T03:42:51.475Z,24.05
2023-05-11T03:43:51.831Z,24.06
2023-05-11T03:44:51.502Z,24.06
2023-05-11T03:45:51.534Z,24.06
2023-05-11T03:46:51.479Z,24.05
2023-05-11T03:47:51.565Z,24.06
2023-05-11T03:48:51.487Z,24.06
2023-05-11T03:49:51.508Z,24.06
2023-05-11T03:50:51.498Z,24.06
2023-05-11T03:51:51.509Z,24.05
2023-05-11T03:52:51.524Z,24.05
2023-05-11T03:53:51.526Z,24.04
2023-05-11T03:54:51.561Z,24.04
2023-05-11T03:55:51.539Z,24.05
2023-05-11T03:56:51.556Z,24.04
2023-05-11T03:57:51.580Z,24.03
2023-05-11T03:58:51.580Z,24.03
2023-05-11T03:59:51.590Z,24.04
2023-05-11T04:00:51.637Z,24.04
2023-05-11T04:01:51.636Z,24.03
2023-05-11T04:02:51.641Z,24.03
2023-05-11T04:03:51.705Z,24.03
2023-05-11T04:04:51.647Z,24.03
2023-05-11T04:05:51.618Z,24.03
2023-05-11T04:06:51.610Z,24.03
2023-05-11T04:07:51.603Z,24.03
2023-05-11T04:08:51.595Z,24.03
2023-05-11T04:09:51.589Z,24.03
2023-05-11T04:10:51.584Z,24.03
2023-05-11T04:11:51.588Z,24.03
2023-05-11T04:12:51.675Z,24.03
2023-05-11T04:13:52.581Z,24.03
2023-05-11T04:14:51.586Z,24.02
2023-05-11T04:15:53.702Z,24.02
2023-05-11T04:16:51.569Z,24.02
2023-05-11T04:17:51.595Z,24.03
2023-05-11T04:18:51.593Z,24.02
2023-05-11T04:19:51.557Z,24.02
2023-05-11T04:20:51.544Z,24.03
2023-05-11T04:21:51.552Z,24.02
2023-05-11T04:22:51.544Z,24.02
2023-05-11T04:23:51.596Z,24.01
2023-05-11T04:24:51.508Z,24.02
2023-05-11T04:25:51.508Z,24.02
2023-05-11T04:26:51.489Z,24.02
2023-05-11T04:27:51.482Z,24.02
2023-05-11T04:28:51.474Z,24.02
2023-05-11T04:29:51.486Z,24.02
2023-05-11T04:30:51.472Z,24.02
2023-05-11T04:31:51.541Z,24.02
2023-05-11T04:32:51.482Z,24.02
2023-05-11T04:33:51.531Z,24.02
2023-05-11T04:34:51.464Z,24.01
2023-05-11T04:35:51.431Z,24.01
2023-05-11T04:36:51.428Z,24.01
2023-05-11T04:37:51.416Z,24.01
2023-05-11T04:38:51.419Z,24.00
2023-05-11T04:39:51.414Z,24.00
2023-05-11T04:40:51.393Z,24.00
2023-05-11T04:41:51.385Z,24.00
2023-05-11T04:42:51.398Z,24.01
2023-05-11T04:43:51.420Z,24.01
2023-05-11T04:44:51.389Z,24.01
2023-05-11T04:45:51.360Z,24.00
2023-05-11T04:46:51.391Z,24.01
2023-05-11T04:47:51.384Z,24.01
2023-05-11T04:48:51.347Z,24.01
2023-05-11T04:49:51.371Z,24.01
2023-05-11T04:50:51.336Z,24.00
2023-05-11T04:51:51.330Z,24.01
2023-05-11T04:52:51.416Z,24.00
2023-05-11T04:53:51.448Z,24.00
2023-05-11T04:54:52.567Z,23.99
2023-05-11T04:55:51.281Z,23.99
2023-05-11T04:56:51.377Z,23.99
2023-05-11T04:57:52.762Z,23.99
2023-05-11T04:58:51.370Z,23.99
2023-05-11T04:59:52.325Z,24.00
2023-05-11T05:00:51.277Z,23.99
2023-05-11T05:01:51.233Z,24.01
2023-05-11T05:02:51.295Z,24.00
2023-05-11T05:03:51.575Z,24.01
2023-05-11T05:04:52.317Z,24.01
2023-05-11T05:05:51.244Z,24.01
2023-05-11T05:06:51.215Z,24.02
2023-05-11T05:07:51.205Z,24.02
2023-05-11T05:08:51.182Z,24.02
2023-05-11T05:09:51.174Z,24.02
2023-05-11T05:10:51.191Z,24.03
2023-05-11T05:11:51.191Z,24.03
2023-05-11T05:12:51.169Z,24.02
2023-05-11T05:13:51.141Z,24.04
2023-05-11T05:14:51.253Z,24.03
2023-05-11T05:15:51.145Z,24.03
2023-05-11T05:16:51.136Z,24.03
2023-05-11T05:17:51.194Z,24.04
2023-05-11T05:18:51.157Z,24.03
2023-05-11T05:19:51.121Z,24.02
2023-05-11T05:20:51.123Z,24.03
2023-05-11T05:21:51.109Z,24.03
2023-05-11T05:22:51.115Z,24.03
2023-05-11T05:23:51.114Z,24.03
2023-05-11T05:24:51.079Z,24.03
2023-05-11T05:25:51.065Z,24.03
2023-05-11T05:26:51.063Z,24.04
2023-05-11T05:27:51.072Z,24.04
2023-05-11T05:28:51.053Z,24.04
2023-05-11T05:29:51.043Z,24.03
2023-05-11T05:30:51.164Z,24.04
2023-05-11T05:31:51.055Z,24.05
2023-05-11T05:32:51.071Z,24.02
2023-05-11T05:33:51.024Z,24.01
2023-05-11T05:34:51.109Z,24.01
2023-05-11T05:35:51.112Z,24.02
2023-05-11T05:36:50.974Z,24.02
2023-05-11T05:37:51.161Z,24.06
2023-05-11T05:38:51.023Z,24.09
2023-05-11T05:39:50.956Z,24.12
2023-05-11T05:40:51.348Z,24.14
2023-05-11T05:41:50.968Z,24.16
2023-05-11T05:42:51.845Z,24.17
2023-05-11T05:43:50.927Z,24.19
2023-05-11T05:44:51.870Z,24.22
2023-05-11T05:45:51.394Z,24.21
2023-05-11T05:46:50.922Z,24.23
2023-05-11T05:47:50.993Z,24.25
2023-05-11T05:48:50.915Z,24.28
2023-05-11T05:49:50.959Z,24.32
2023-05-11T05:50:50.903Z,24.35
2023-05-11T05:51:50.896Z,24.39
2023-05-11T05:52:51.279Z,24.43
2023-05-11T05:53:50.880Z,24.45
2023-05-11T05:54:50.870Z,24.50
2023-05-11T05:55:50.845Z,24.52
2023-05-11T05:56:50.838Z,24.54
2023-05-11T05:57:50.843Z,24.56
2023-05-11T05:58:50.833Z,24.57
2023-05-11T05:59:50.820Z,24.61
2023-05-11T06:00:50.856Z,24.63
2023-05-11T06:01:50.890Z,24.65
2023-05-11T06:02:50.990Z,24.68
2023-05-11T06:03:51.082Z,24.70
2023-05-11T06:04:51.111Z,24.72
2023-05-11T06:05:51.065Z,24.73
2023-05-11T06:06:51.125Z,24.76
2023-05-11T06:08:01.932Z,24.77
2023-05-11T06:08:52.364Z,24.79
2023-05-11T06:09:52.173Z,24.83
2023-05-11T06:10:51.357Z,24.85
2023-05-11T06:11:51.192Z,24.87
2023-05-11T06:12:51.177Z,24.88
2023-05-11T06:13:51.163Z,24.91
2023-05-11T06:14:51.175Z,24.93
2023-05-11T06:15:51.160Z,24.94
2023-05-11T06:16:51.134Z,24.96
2023-05-11T06:17:51.269Z,24.97
2023-05-11T06:18:51.276Z,24.98
2023-05-11T06:19:51.282Z,25.00
2023-05-11T06:20:51.391Z,25.02
2023-05-11T06:21:51.418Z,25.02
2023-05-11T06:22:51.551Z,25.04
2023-05-11T06:23:52.490Z,25.05
2023-05-11T06:24:51.691Z,25.06
2023-05-11T06:25:51.577Z,25.08
2023-05-11T06:26:51.623Z,25.09
2023-05-11T06:27:51.675Z,25.09
2023-05-11T06:28:51.751Z,25.09
2023-05-11T06:29:51.811Z,25.10
2023-05-11T06:30:52.362Z,25.09
2023-05-11T06:31:51.916Z,25.10
2023-05-11T06:32:52.070Z,25.10
2023-05-11T06:33:52.006Z,25.10
2023-05-11T06:34:52.059Z,25.11
2023-05-11T06:35:52.378Z,25.10
2023-05-11T06:36:52.141Z,25.10
2023-05-11T06:37:52.204Z,25.10
2023-05-11T06:38:52.347Z,25.10
2023-05-11T06:39:52.304Z,25.10
2023-05-11T06:40:52.366Z,25.10
2023-05-11T06:41:53.197Z,25.12
2023-05-11T06:42:52.458Z,25.12
2023-05-11T06:43:52.584Z,25.13
2023-05-11T06:44:52.605Z,25.14
2023-05-11T06:45:52.909Z,25.14
2023-05-11T06:46:52.697Z,25.14
2023-05-11T06:47:52.799Z,25.13
2023-05-11T06:48:52.769Z,25.13
2023-05-11T06:49:52.843Z,25.14
2023-05-11T06:50:53.379Z,25.14
2023-05-11T06:51:52.930Z,25.16
2023-05-11T06:52:53.021Z,25.18
2023-05-11T06:53:53.070Z,25.19
2023-05-11T06:54:53.084Z,25.21
2023-05-11T06:55:53.882Z,25.22
2023-05-11T06:56:53.915Z,25.24
2023-05-11T06:57:53.207Z,25.24
2023-05-11T06:58:53.246Z,25.27
2023-05-11T06:59:53.293Z,25.30
2023-05-11T07:00:53.706Z,25.33
2023-05-11T07:01:53.359Z,25.35
2023-05-11T07:02:53.476Z,25.36
2023-05-11T07:03:54.887Z,25.38
2023-05-11T07:04:53.508Z,25.39
2023-05-11T07:05:54.021Z,25.41
2023-05-11T07:06:53.585Z,25.41
2023-05-11T07:07:53.569Z,25.41
2023-05-11T07:08:53.541Z,25.43
2023-05-11T07:09:53.596Z,25.44
2023-05-11T07:10:54.481Z,25.45
2023-05-11T07:11:53.649Z,25.46
2023-05-11T07:12:53.634Z,25.47
2023-05-11T07:13:53.629Z,25.48
2023-05-11T07:14:54.580Z,25.49
2023-05-11T07:15:56.655Z,25.50
2023-05-11T07:16:53.668Z,25.52
2023-05-11T07:17:53.773Z,25.52
2023-05-11T07:18:53.690Z,25.53
2023-05-11T07:19:53.768Z,25.54
2023-05-11T07:20:53.893Z,25.54
2023-05-11T07:21:53.931Z,25.53
2023-05-11T07:22:53.624Z,25.55
2023-05-11T07:23:53.776Z,25.58
2023-05-11T07:24:53.614Z,25.60
2023-05-11T07:25:55.392Z,25.61
2023-05-11T07:26:53.608Z,25.60
2023-05-11T07:27:54.388Z,25.63
2023-05-11T07:28:53.521Z,25.65
2023-05-11T07:29:53.526Z,25.67
2023-05-11T07:30:54.432Z,25.70
2023-05-11T07:31:53.550Z,25.71
2023-05-11T07:32:53.551Z,25.73
2023-05-11T07:33:53.457Z,25.75
2023-05-11T07:34:53.459Z,25.75
2023-05-11T07:35:53.603Z,25.77
2023-05-11T07:36:53.514Z,25.80
2023-05-11T07:37:53.573Z,25.81
2023-05-11T07:38:53.415Z,25.82
2023-05-11T07:39:53.430Z,25.83
2023-05-11T07:40:53.465Z,25.85
2023-05-11T07:41:53.395Z,25.86
2023-05-11T07:42:53.398Z,25.88
2023-05-11T07:43:53.404Z,25.90
2023-05-11T07:44:53.415Z,25.90
2023-05-11T07:45:53.498Z,25.91
2023-05-11T07:46:53.378Z,25.93
2023-05-11T07:47:53.516Z,25.93
2023-05-11T07:49:03.406Z,25.94
2023-05-11T07:49:54.350Z,25.95
2023-05-11T07:50:53.372Z,25.96
2023-05-11T07:51:53.367Z,25.97
2023-05-11T07:52:53.349Z,25.99
2023-05-11T07:53:53.322Z,26.01
2023-05-11T07:54:53.354Z,26.01
2023-05-11T07:55:53.558Z,26.02
2023-05-11T07:56:53.405Z,26.04
2023-05-11T07:57:53.699Z,26.04
2023-05-11T07:58:54.396Z,26.06
2023-05-11T07:59:53.663Z,26.08
2023-05-11T08:00:53.943Z,26.09
2023-05-11T08:01:53.745Z,26.09
2023-05-11T08:02:53.929Z,26.09
2023-05-11T08:03:53.886Z,26.08
2023-05-11T08:04:54.410Z,26.09
2023-05-11T08:05:54.516Z,26.11
2023-05-11T08:06:54.093Z,26.11
2023-05-11T08:07:54.082Z,26.11
2023-05-11T08:08:54.173Z,26.10
2023-05-11T08:09:54.254Z,26.08
2023-05-11T08:10:54.329Z,26.08
2023-05-11T08:11:54.340Z,26.08
2023-05-11T08:12:54.413Z,26.08
2023-05-11T08:13:54.480Z,26.04
2023-05-11T08:14:54.547Z,26.03
2023-05-11T08:15:54.935Z,26.02
2023-05-11T08:16:54.704Z,26.00
2023-05-11T08:17:54.840Z,25.99
2023-05-11T08:18:54.796Z,25.98
2023-05-11T08:19:54.851Z,25.97
2023-05-11T08:20:54.931Z,25.97
2023-05-11T08:21:54.965Z,25.97
2023-05-11T08:22:55.909Z,25.97
2023-05-11T08:23:55.088Z,25.97
2023-05-11T08:24:55.103Z,25.98
2023-05-11T08:25:55.471Z,25.98
2023-05-11T08:26:55.275Z,25.98
2023-05-11T08:27:55.283Z,25.99
2023-05-11T08:28:55.294Z,26.00
2023-05-11T08:29:55.349Z,26.03
2023-05-11T08:30:55.485Z,26.06
2023-05-11T08:31:55.813Z,26.07
2023-05-11T08:32:59.093Z,26.06
2023-05-11T08:33:55.687Z,26.01
2023-05-11T08:34:55.678Z,25.92
2023-05-11T08:35:55.537Z,25.81
2023-05-11T08:36:55.533Z,25.71
2023-05-11T08:37:55.799Z,25.61
2023-05-11T08:38:58.923Z,25.52
2023-05-11T08:39:55.499Z,25.48
2023-05-11T08:40:55.932Z,25.41
2023-05-11T08:41:55.450Z,25.35
2023-05-11T08:42:55.533Z,25.32
2023-05-11T08:43:55.485Z,25.33
2023-05-11T08:44:55.530Z,25.34
2023-05-11T08:45:55.544Z,25.37
2023-05-11T08:47:08.584Z,25.40
2023-05-11T08:47:56.565Z,25.42
2023-05-11T08:48:55.485Z,25.46
2023-05-11T08:49:56.486Z,25.52
2023-05-11T08:50:55.389Z,25.57
2023-05-11T08:51:55.463Z,25.59
2023-05-11T08:52:55.364Z,25.62
2023-05-11T08:53:55.331Z,25.66
2023-05-11T08:54:55.336Z,25.69
2023-05-11T08:55:55.389Z,25.71
2023-05-11T08:56:55.355Z,25.74
2023-05-11T08:57:55.434Z,25.79
2023-05-11T08:58:56.140Z,25.80
2023-05-11T08:59:55.301Z,25.82
2023-05-11T09:00:55.325Z,25.82
2023-05-11T09:01:55.504Z,25.85
2023-05-11T09:02:55.480Z,25.85
2023-05-11T09:03:55.427Z,25.86
2023-05-11T09:04:55.507Z,25.88
2023-05-11T09:05:55.644Z,25.88
2023-05-11T09:06:55.946Z,25.87
2023-05-11T09:07:55.710Z,25.91
2023-05-11T09:08:55.778Z,25.93
2023-05-11T09:09:55.898Z,25.96
2023-05-11T09:10:55.858Z,25.99
2023-05-11T09:11:55.935Z,26.02
2023-05-11T09:12:56.010Z,26.04
2023-05-11T09:13:56.961Z,26.04
2023-05-11T09:15:02.011Z,26.06
2023-05-11T09:15:57.143Z,26.07
2023-05-11T09:16:56.072Z,26.08
2023-05-11T09:17:56.086Z,26.10
2023-05-11T09:18:56.059Z,26.12
2023-05-11T09:19:56.074Z,26.15
2023-05-11T09:20:55.993Z,26.17
2023-05-11T09:21:56.014Z,26.18
2023-05-11T09:22:56.044Z,26.18
2023-05-11T09:23:56.005Z,26.19
2023-05-11T09:24:56.020Z,26.21
2023-05-11T09:25:56.085Z,26.23
2023-05-11T09:26:56.456Z,26.24
2023-05-11T09:27:56.230Z,26.25
2023-05-11T09:29:02.876Z,26.27
2023-05-11T09:29:57.237Z,26.29
2023-05-11T09:30:56.282Z,26.28
2023-05-11T09:31:56.557Z,26.29
2023-05-11T09:32:56.276Z,26.31
2023-05-11T09:33:56.213Z,26.33
2023-05-11T09:34:56.311Z,26.33
2023-05-11T09:35:56.129Z,26.35
2023-05-11T09:36:56.721Z,26.36
2023-05-11T09:37:56.236Z,26.35
2023-05-11T09:38:57.240Z,26.36
2023-05-11T09:40:14.218Z,26.37
2023-05-11T09:40:57.463Z,26.39
2023-05-11T09:41:56.294Z,26.40
2023-05-11T09:42:56.259Z,26.41
2023-05-11T09:43:56.252Z,26.42
2023-05-11T09:44:56.227Z,26.40
2023-05-11T09:45:56.390Z,26.40
2023-05-11T09:46:56.504Z,26.41
2023-05-11T09:47:56.183Z,26.42
2023-05-11T09:48:56.180Z,26.42
2023-05-11T09:49:56.152Z,26.42
2023-05-11T09:50:56.214Z,26.43
2023-05-11T09:51:56.555Z,26.44
2023-05-11T09:52:56.141Z,26.44
2023-05-11T09:53:56.116Z,26.45
2023-05-11T09:54:56.349Z,26.43
2023-05-11T09:55:56.124Z,26.41
2023-05-11T09:56:56.125Z,26.40
2023-05-11T09:57:56.145Z,26.43
2023-05-11T09:58:56.098Z,26.44
2023-05-11T09:59:56.145Z,26.45
2023-05-11T10:00:56.189Z,26.47
2023-05-11T10:01:56.233Z,26.47
2023-05-11T10:02:56.268Z,26.49
2023-05-11T10:04:02.735Z,26.49
2023-05-11T10:04:57.296Z,26.50
2023-05-11T10:05:56.253Z,26.49
2023-05-11T10:06:56.234Z,26.51
2023-05-11T10:07:56.224Z,26.53
2023-05-11T10:08:56.243Z,26.54
2023-05-11T10:09:56.228Z,26.55
2023-05-11T10:10:56.222Z,26.55
2023-05-11T10:11:56.232Z,26.56
2023-05-11T10:12:56.190Z,26.56
2023-05-11T10:13:56.180Z,26.57
2023-05-11T10:14:56.208Z,26.59
2023-05-11T10:15:56.266Z,26.59
2023-05-11T10:16:56.191Z,26.58
2023-05-11T10:17:56.164Z,26.57
2023-05-11T10:18:56.285Z,26.59
2023-05-11T10:19:56.201Z,26.61
2023-05-11T10:20:56.122Z,26.63
2023-05-11T10:21:56.242Z,26.64
2023-05-11T10:22:56.282Z,26.65
2023-05-11T10:23:56.146Z,26.62
2023-05-11T10:24:56.098Z,26.58
2023-05-11T10:25:56.092Z,26.53
2023-05-11T10:26:56.160Z,26.49
2023-05-11T10:27:56.082Z,26.45
2023-05-11T10:28:56.113Z,26.39
2023-05-11T10:29:56.114Z,26.35
2023-05-11T10:30:56.158Z,26.31
2023-05-11T10:31:56.225Z,26.28
2023-05-11T10:32:56.278Z,26.25
2023-05-11T10:33:56.226Z,26.22
2023-05-11T10:34:56.300Z,26.19
2023-05-11T10:35:56.394Z,26.17
2023-05-11T10:36:56.405Z,26.15
2023-05-11T10:37:56.364Z,26.12
2023-05-11T10:38:56.416Z,26.10
2023-05-11T10:39:56.478Z,26.09
2023-05-11T10:40:56.488Z,26.06
2023-05-11T10:41:56.658Z,26.05
2023-05-11T10:42:57.533Z,26.03
2023-05-11T10:43:56.661Z,26.02
2023-05-11T10:44:56.737Z,26.00
2023-05-11T10:45:57.801Z,25.99
2023-05-11T10:46:56.888Z,25.97
2023-05-11T10:47:56.872Z,25.96
2023-05-11T10:48:56.905Z,25.95
2023-05-11T10:49:56.936Z,25.94
2023-05-11T10:50:57.543Z,25.92
2023-05-11T10:51:57.053Z,25.92
2023-05-11T10:52:57.125Z,25.91
2023-05-11T10:53:57.153Z,25.88
2023-05-11T10:54:57.248Z,25.88
2023-05-11T10:55:57.420Z,25.87
2023-05-11T10:56:58.415Z,25.86
2023-05-11T10:57:57.410Z,25.85
2023-05-11T10:58:57.479Z,25.84
2023-05-11T10:59:57.518Z,25.83
2023-05-11T11:00:57.815Z,25.82
2023-05-11T11:01:57.780Z,25.81
2023-05-11T11:02:57.760Z,25.80
2023-05-11T11:03:57.813Z,25.80
2023-05-11T11:04:57.856Z,25.79
2023-05-11T11:06:00.030Z,25.78
2023-05-11T11:06:58.344Z,25.76
2023-05-11T11:07:57.889Z,25.75
2023-05-11T11:08:58.105Z,25.75
2023-05-11T11:09:58.910Z,25.74
2023-05-11T11:10:57.929Z,25.73
2023-05-11T11:11:57.990Z,25.72
2023-05-11T11:12:57.877Z,25.72
2023-05-11T11:13:58.511Z,25.72
2023-05-11T11:14:58.677Z,25.70
2023-05-11T11:15:58.586Z,25.69
2023-05-11T11:16:58.016Z,25.70
2023-05-11T11:17:57.864Z,25.69
2023-05-11T11:18:57.930Z,25.68
2023-05-11T11:19:57.826Z,25.68
2023-05-11T11:20:58.881Z,25.67
2023-05-11T11:22:00.518Z,25.66
2023-05-11T11:22:57.799Z,25.65
2023-05-11T11:23:57.773Z,25.65
2023-05-11T11:24:57.821Z,25.64
2023-05-11T11:25:57.777Z,25.64
2023-05-11T11:26:57.760Z,25.63
2023-05-11T11:27:57.859Z,25.63
2023-05-11T11:28:57.820Z,25.62
2023-05-11T11:29:58.735Z,25.61
2023-05-11T11:30:57.805Z,25.60
2023-05-11T11:31:57.731Z,25.60
2023-05-11T11:32:57.735Z,25.60
2023-05-11T11:33:57.700Z,25.59
2023-05-11T11:34:57.726Z,25.59
2023-05-11T11:35:57.715Z,25.58
2023-05-11T11:36:58.699Z,25.58
2023-05-11T11:37:57.689Z,25.57
2023-05-11T11:38:57.718Z,25.56
2023-05-11T11:40:02.902Z,25.57
2023-05-11T11:40:58.643Z,25.55
2023-05-11T11:41:57.636Z,25.55
2023-05-11T11:42:57.672Z,25.54
2023-05-11T11:43:57.663Z,25.54
2023-05-11T11:44:57.629Z,25.53
2023-05-11T11:45:57.629Z,25.53
2023-05-11T11:46:57.658Z,25.53
2023-05-11T11:47:57.708Z,25.53
2023-05-11T11:48:57.616Z,25.52
2023-05-11T11:49:57.575Z,25.52
2023-05-11T11:50:57.630Z,25.51
2023-05-11T11:51:57.568Z,25.50
2023-05-11T11:52:57.597Z,25.51
2023-05-11T11:53:58.924Z,25.50
2023-05-11T11:54:57.617Z,25.48
2023-05-11T11:55:57.580Z,25.48
2023-05-11T11:56:57.585Z,25.47
2023-05-11T11:57:57.587Z,25.47
2023-05-11T11:58:57.558Z,25.47
2023-05-11T11:59:57.591Z,25.45
2023-05-11T12:00:59.664Z,25.45
2023-05-11T12:01:57.582Z,25.45
2023-05-11T12:02:57.664Z,25.45
2023-05-11T12:03:57.837Z,25.44
2023-05-11T12:04:57.678Z,25.44
2023-05-11T12:05:57.543Z,25.44
2023-05-11T12:06:57.580Z,25.44
2023-05-11T12:07:57.599Z,25.43
2023-05-11T12:08:57.551Z,25.44
2023-05-11T12:09:57.637Z,25.43
2023-05-11T12:10:57.582Z,25.44
2023-05-11T12:11:57.572Z,25.43
2023-05-11T12:12:59.313Z,25.44
2023-05-11T12:13:57.600Z,25.43
2023-05-11T12:14:57.631Z,25.43
2023-05-11T12:15:57.578Z,25.43
2023-05-11T12:16:57.738Z,25.43
2023-05-11T12:17:57.689Z,25.42
2023-05-11T12:19:00.103Z,25.42
2023-05-11T12:19:57.610Z,25.42
2023-05-11T12:20:57.625Z,25.42
2023-05-11T12:21:57.611Z,25.41
2023-05-11T12:22:57.624Z,25.41
2023-05-11T12:23:57.585Z,25.41
2023-05-11T12:24:59.532Z,25.41
2023-05-11T12:25:57.575Z,25.40
2023-05-11T12:26:57.598Z,25.40
2023-05-11T12:27:57.583Z,25.39
2023-05-11T12:28:57.578Z,25.39
2023-05-11T12:29:57.591Z,25.38
2023-05-11T12:30:59.158Z,25.38
2023-05-11T12:31:57.619Z,25.38
2023-05-11T12:32:57.983Z,25.38
2023-05-11T12:33:57.508Z,25.37
2023-05-11T12:34:57.494Z,25.36
2023-05-11T12:35:57.538Z,25.36
2023-05-11T12:36:59.731Z,25.35
2023-05-11T12:37:57.544Z,25.35
2023-05-11T12:38:57.469Z,25.35
2023-05-11T12:39:57.484Z,25.34
2023-05-11T12:40:57.466Z,25.34
2023-05-11T12:41:57.452Z,25.34
2023-05-11T12:42:57.467Z,25.34
2023-05-11T12:43:57.609Z,25.33
2023-05-11T12:44:57.429Z,25.32
2023-05-11T12:45:57.493Z,25.33
2023-05-11T12:46:57.450Z,25.32
2023-05-11T12:47:57.709Z,25.32
2023-05-11T12:48:59.676Z,25.32
2023-05-11T12:49:57.405Z,25.31
2023-05-11T12:50:57.395Z,25.30
2023-05-11T12:51:57.395Z,25.30
2023-05-11T12:52:57.409Z,25.30